createdAt,value
2018-11-03T00:01:36.246Z,95.57
2018-11-03T00:04:40.809Z,95.43
2018-11-03T00:07:46.016Z,95.59
2018-11-03T00:10:50.609Z,95.71
2018-11-03T00:13:55.190Z,95.68
2018-11-03T00:16:59.693Z,95.66
2018-11-03T00:20:04.499Z,95.49
2018-11-03T00:23:09.754Z,96.03
2018-11-03T00:26:14.313Z,95.80
2018-11-03T00:29:18.904Z,95.42
2018-11-03T00:32:23.576Z,95.73
2018-11-03T00:35:28.275Z,96.16
2018-11-03T00:38:32.901Z,96.19
2018-11-03T00:41:37.490Z,95.57
2018-11-03T00:44:42.031Z,96.06
2018-11-03T00:47:46.613Z,95.49
2018-11-03T00:50:51.177Z,95.16
2018-11-03T00:53:55.748Z,95.46
2018-11-03T00:57:00.328Z,94.78
2018-11-03T01:00:05.961Z,95.05
2018-11-03T01:03:10.492Z,94.84
2018-11-03T01:06:15.105Z,94.97
2018-11-03T01:09:19.769Z,95.39
2018-11-03T01:12:24.346Z,95.02
2018-11-03T01:15:28.867Z,94.18
2018-11-03T01:18:33.468Z,94.68
2018-11-03T01:21:38.001Z,94.42
2018-11-03T01:24:42.577Z,93.70
2018-11-03T01:27:47.169Z,93.63
2018-11-03T01:30:51.708Z,93.48
2018-11-03T01:33:56.434Z,92.38
2018-11-03T01:37:01.214Z,92.00
2018-11-03T01:40:06.119Z,91.92
2018-11-03T01:43:10.716Z,92.75
2018-11-03T01:46:15.676Z,93.54
2018-11-03T01:49:20.307Z,93.68
2018-11-03T01:52:24.986Z,94.06
2018-11-03T01:55:29.584Z,93.60
2018-11-03T01:58:34.263Z,93.25
2018-11-03T02:01:38.873Z,93.29
2018-11-03T02:04:43.457Z,94.07
2018-11-03T02:07:48.032Z,93.97
2018-11-03T02:10:52.697Z,94.33
2018-11-03T02:13:57.228Z,94.92
2018-11-03T02:17:01.772Z,94.90
2018-11-03T02:20:09.247Z,94.99
2018-11-03T02:23:13.956Z,95.36
2018-11-03T02:26:18.525Z,95.27
2018-11-03T02:29:23.406Z,94.96
2018-11-03T02:32:28.021Z,95.12
2018-11-03T02:35:32.552Z,95.69
2018-11-03T02:38:37.300Z,95.65
2018-11-03T02:41:41.976Z,95.72
2018-11-03T02:44:46.629Z,96.06
2018-11-03T02:47:51.288Z,95.58
2018-11-03T02:50:55.875Z,95.21
2018-11-03T02:54:00.761Z,95.65
2018-11-03T02:57:05.637Z,95.01
2018-11-03T03:00:11.644Z,94.96
2018-11-03T03:03:16.225Z,95.73
2018-11-03T03:06:20.825Z,95.65
2018-11-03T03:09:25.530Z,95.88
2018-11-03T03:12:30.080Z,95.14
2018-11-03T03:15:34.709Z,95.81
2018-11-03T03:18:39.289Z,95.61
2018-11-03T03:21:43.904Z,95.76
2018-11-03T03:24:48.504Z,94.18
2018-11-03T03:27:53.093Z,94.41
2018-11-03T03:30:57.764Z,94.19
2018-11-03T03:34:02.551Z,93.95
2018-11-03T03:37:07.260Z,93.55
2018-11-03T03:40:12.210Z,93.71
2018-11-03T03:43:16.844Z,94.49
2018-11-03T03:46:21.499Z,94.50
2018-11-03T03:49:26.175Z,94.30
2018-11-03T03:52:30.704Z,94.11
2018-11-03T03:55:35.300Z,94.40
2018-11-03T03:58:40.140Z,94.51
2018-11-03T04:01:44.811Z,94.82
2018-11-03T04:04:49.566Z,94.21
2018-11-03T04:07:54.156Z,94.61
2018-11-03T04:10:58.745Z,94.56
2018-11-03T04:14:03.500Z,94.20
2018-11-03T04:17:08.154Z,94.28
2018-11-03T04:20:12.826Z,94.54
2018-11-03T04:23:17.470Z,94.36
2018-11-03T04:26:22.100Z,95.08
2018-11-03T04:29:26.607Z,94.49
2018-11-03T04:32:31.363Z,94.86
2018-11-03T04:35:36.031Z,95.34
2018-11-03T04:38:40.628Z,94.69
2018-11-03T04:41:45.398Z,93.87
2018-11-03T04:44:49.956Z,92.14
2018-11-03T04:47:54.509Z,92.34
2018-11-03T04:50:59.169Z,92.91
2018-11-03T04:54:03.779Z,93.46
2018-11-03T04:57:08.384Z,93.32
2018-11-03T05:00:12.993Z,94.18
2018-11-03T05:03:17.523Z,94.79
2018-11-03T05:06:22.165Z,95.13
2018-11-03T05:09:26.872Z,95.44
2018-11-03T05:12:31.704Z,96.27
2018-11-03T05:15:36.259Z,96.33
2018-11-03T05:18:41.222Z,96.62
2018-11-03T05:21:45.797Z,97.05
2018-11-03T05:24:50.396Z,97.25
2018-11-03T05:27:55.049Z,96.97
2018-11-03T05:30:59.657Z,97.30
2018-11-03T05:34:04.240Z,97.78
2018-11-03T05:37:08.878Z,97.55
2018-11-03T05:40:13.497Z,97.22
2018-11-03T05:43:18.073Z,97.71
2018-11-03T05:46:22.633Z,98.02
2018-11-03T05:49:27.325Z,98.44
2018-11-03T05:52:31.966Z,98.34
2018-11-03T05:55:36.642Z,98.34
2018-11-03T05:58:41.269Z,98.29
2018-11-03T06:01:46.007Z,98.79
2018-11-03T06:04:50.723Z,98.52
2018-11-03T06:07:55.818Z,98.48
2018-11-03T06:11:00.394Z,98.69
2018-11-03T06:14:05.073Z,98.71
2018-11-03T06:17:09.967Z,99.29
2018-11-03T06:20:14.606Z,98.96
2018-11-03T06:23:19.261Z,98.90
2018-11-03T06:26:23.801Z,98.50
2018-11-03T06:29:28.350Z,99.02
2018-11-03T06:32:33.008Z,98.57
2018-11-03T06:35:37.631Z,98.85
2018-11-03T06:38:42.194Z,98.52
2018-11-03T06:41:46.932Z,98.37
2018-11-03T06:44:51.704Z,98.60
2018-11-03T06:47:56.310Z,98.42
2018-11-03T06:51:00.974Z,98.81
2018-11-03T06:54:06.165Z,98.66
2018-11-03T06:57:10.780Z,98.89
2018-11-03T07:00:15.340Z,98.64
2018-11-03T07:03:19.841Z,98.98
2018-11-03T07:06:24.888Z,98.78
2018-11-03T07:09:29.544Z,98.05
2018-11-03T07:12:34.363Z,97.68
2018-11-03T07:15:38.786Z,96.82
2018-11-03T07:18:43.508Z,96.50
2018-11-03T07:21:48.140Z,95.61
2018-11-03T07:24:52.876Z,94.80
2018-11-03T07:27:57.413Z,95.22
2018-11-03T07:31:02.220Z,94.32
2018-11-03T07:34:07.071Z,93.03
2018-11-03T07:37:37.062Z,92.43
2018-11-03T07:40:41.794Z,91.71
2018-11-03T07:43:46.379Z,91.11
2018-11-03T07:46:50.945Z,90.43
2018-11-03T07:49:56.263Z,89.14
2018-11-03T07:53:00.804Z,85.79
2018-11-03T07:56:05.774Z,84.29
2018-11-03T07:59:10.395Z,83.32
2018-11-03T08:02:14.979Z,83.99
2018-11-03T08:05:19.541Z,83.81
2018-11-03T08:08:24.020Z,82.63
2018-11-03T08:11:28.712Z,81.40
2018-11-03T08:14:33.368Z,80.61
2018-11-03T08:17:37.903Z,79.60
2018-11-03T08:20:42.502Z,78.99
2018-11-03T08:23:47.196Z,79.61
2018-11-03T08:26:51.895Z,81.06
2018-11-03T08:29:56.594Z,80.28
2018-11-03T08:33:01.226Z,80.95
2018-11-03T08:36:06.054Z,80.10
2018-11-03T08:39:11.428Z,78.22
2018-11-03T08:42:15.914Z,78.33
2018-11-03T08:45:20.461Z,78.44
2018-11-03T08:48:25.246Z,78.06
2018-11-03T08:51:29.896Z,76.78
2018-11-03T08:54:34.456Z,76.72
2018-11-03T08:57:39.037Z,76.28
2018-11-03T09:00:43.572Z,76.79
2018-11-03T09:03:48.141Z,76.17
2018-11-03T09:06:52.756Z,75.16
2018-11-03T09:09:57.429Z,74.70
2018-11-03T09:13:02.047Z,73.97
2018-11-03T09:16:06.628Z,73.73
2018-11-03T09:19:12.877Z,72.82
2018-11-03T09:22:17.577Z,72.23
2018-11-03T09:25:22.191Z,71.58
2018-11-03T09:28:26.737Z,72.13
2018-11-03T09:31:31.299Z,72.00
2018-11-03T09:34:35.853Z,72.32
2018-11-03T09:37:40.578Z,71.09
2018-11-03T09:40:45.256Z,69.54
2018-11-03T09:43:49.813Z,70.52
2018-11-03T09:46:54.456Z,69.62
2018-11-03T09:49:59.067Z,68.49
2018-11-03T09:53:03.683Z,66.16
2018-11-03T09:56:08.552Z,65.71
2018-11-03T09:59:13.213Z,64.43
2018-11-03T10:02:18.075Z,65.58
2018-11-03T10:05:23.765Z,65.78
2018-11-03T10:08:28.527Z,63.42
2018-11-03T10:11:33.458Z,65.14
2018-11-03T10:14:38.292Z,63.69
2018-11-03T10:17:44.167Z,63.88
2018-11-03T10:20:48.942Z,62.18
2018-11-03T10:23:54.032Z,63.01
2018-11-03T10:27:04.604Z,61.74
2018-11-03T10:30:11.798Z,63.96
2018-11-03T10:33:26.679Z,65.53
2018-11-03T10:36:31.490Z,65.56
2018-11-03T10:39:36.580Z,66.34
2018-11-03T10:42:44.263Z,63.73
2018-11-03T10:46:00.572Z,62.27
2018-11-03T10:49:05.663Z,62.71
2018-11-03T10:52:11.263Z,62.44
2018-11-03T10:55:17.822Z,61.71
2018-11-03T10:58:22.748Z,62.41
2018-11-03T11:01:32.866Z,61.76
2018-11-03T11:04:44.313Z,61.16
2018-11-03T11:07:55.147Z,60.93
2018-11-03T11:12:05.207Z,62.24
2018-11-03T11:15:11.323Z,61.36
2018-11-03T11:18:17.496Z,62.22
2018-11-03T11:21:22.958Z,61.85
2018-11-03T11:24:29.945Z,61.62
2018-11-03T11:27:40.911Z,62.65
2018-11-03T11:30:48.198Z,61.81
2018-11-03T11:33:55.486Z,61.33
2018-11-03T11:37:02.784Z,61.60
2018-11-03T11:40:11.194Z,61.01
2018-11-03T11:43:44.213Z,61.29
2018-11-03T11:46:49.633Z,60.32
2018-11-03T11:49:54.937Z,59.67
2018-11-03T11:53:00.672Z,59.56
2018-11-03T11:56:06.627Z,60.27
2018-11-03T11:59:12.511Z,60.07
2018-11-03T12:02:18.770Z,60.30
2018-11-03T12:05:25.223Z,60.17
2018-11-03T12:08:31.306Z,59.19
2018-11-03T12:11:36.248Z,58.75
2018-11-03T12:14:41.132Z,58.34
2018-11-03T12:17:46.842Z,59.53
2018-11-03T12:20:52.026Z,59.27
2018-11-03T12:23:56.875Z,59.18
2018-11-03T12:27:01.709Z,59.74
2018-11-03T12:30:09.323Z,60.70
2018-11-03T12:33:14.042Z,59.75
2018-11-03T12:36:18.873Z,59.64
2018-11-03T12:39:23.571Z,57.82
2018-11-03T12:42:28.891Z,59.37
2018-11-03T12:45:33.720Z,59.14
2018-11-03T12:48:38.428Z,57.45
2018-11-03T12:51:43.556Z,59.02
2018-11-03T12:54:48.187Z,57.90
2018-11-03T12:57:53.087Z,56.96
2018-11-03T13:00:57.861Z,56.50
2018-11-03T13:04:03.021Z,57.97
2018-11-03T13:07:08.134Z,55.90
2018-11-03T13:10:13.439Z,57.31
2018-11-03T13:13:18.301Z,57.00
2018-11-03T13:16:23.361Z,56.23
2018-11-03T13:19:28.322Z,55.75
2018-11-03T13:22:33.592Z,54.87
2018-11-03T13:25:38.349Z,56.74
2018-11-03T13:28:43.275Z,56.71
2018-11-03T13:31:48.624Z,57.88
2018-11-03T13:34:53.325Z,57.85
2018-11-03T13:37:58.259Z,58.79
2018-11-03T13:41:03.203Z,57.32
2018-11-03T13:44:08.506Z,58.04
2018-11-03T13:47:13.300Z,57.93
2018-11-03T13:50:18.466Z,58.43
2018-11-03T13:53:23.260Z,57.93
2018-11-03T13:56:28.458Z,58.79
2018-11-03T13:59:33.715Z,59.53
2018-11-03T14:02:38.824Z,58.57
2018-11-03T14:05:43.627Z,59.71
2018-11-03T14:08:48.602Z,59.13
2018-11-03T14:11:53.456Z,59.03
2018-11-03T14:14:58.397Z,58.86
2018-11-03T14:18:03.123Z,60.52
2018-11-03T14:21:07.935Z,59.83
2018-11-03T14:24:12.963Z,59.30
2018-11-03T14:27:20.925Z,59.94
2018-11-03T14:30:25.992Z,61.01
2018-11-03T14:33:30.883Z,60.73
2018-11-03T14:36:35.871Z,61.26
2018-11-03T14:39:40.690Z,61.20
2018-11-03T14:42:46.093Z,62.07
2018-11-03T14:45:51.058Z,61.93
2018-11-03T14:48:55.889Z,62.49
2018-11-03T14:52:00.957Z,63.12
2018-11-03T14:55:06.832Z,63.19
2018-11-03T14:58:11.812Z,63.34
2018-11-03T15:01:16.601Z,63.61
2018-11-03T15:04:21.539Z,63.50
2018-11-03T15:07:26.525Z,64.69
2018-11-03T15:10:31.256Z,64.95
2018-11-03T15:13:36.276Z,66.15
2018-11-03T15:16:41.736Z,65.66
2018-11-03T15:19:46.797Z,66.13
2018-11-03T15:22:51.703Z,66.34
2018-11-03T15:25:56.934Z,67.42
2018-11-03T15:29:02.462Z,66.89
2018-11-03T15:32:08.726Z,67.30
2018-11-03T15:35:14.160Z,67.21
2018-11-03T15:38:19.021Z,66.41
2018-11-03T15:41:23.910Z,66.94
2018-11-03T15:44:28.828Z,67.45
2018-11-03T15:47:33.966Z,66.15
2018-11-03T15:50:44.127Z,68.12
2018-11-03T15:53:49.085Z,68.54
2018-11-03T15:56:54.220Z,69.91
2018-11-03T15:59:59.144Z,70.36
2018-11-03T16:03:04.013Z,70.52
2018-11-03T16:06:08.956Z,71.91
2018-11-03T16:09:13.885Z,71.15
2018-11-03T16:12:18.995Z,72.07
2018-11-03T16:15:23.864Z,71.34
2018-11-03T16:18:28.706Z,69.63
2018-11-03T16:21:33.608Z,70.27
2018-11-03T16:24:38.585Z,71.42
2018-11-03T16:27:43.508Z,70.33
2018-11-03T16:30:48.417Z,69.87
2018-11-03T16:33:54.050Z,71.22
2018-11-03T16:36:59.582Z,70.36
2018-11-03T16:40:04.870Z,70.31
2018-11-03T16:43:09.804Z,70.44
2018-11-03T16:46:14.765Z,71.67
2018-11-03T16:49:21.925Z,71.05
2018-11-03T16:52:26.777Z,71.15
2018-11-03T16:55:32.015Z,71.62
2018-11-03T16:58:38.336Z,71.88
2018-11-03T17:01:43.204Z,73.79
2018-11-03T17:04:48.221Z,74.62
2018-11-03T17:07:53.206Z,76.17
2018-11-03T17:10:58.346Z,74.98
2018-11-03T17:14:03.379Z,74.36
2018-11-03T17:17:08.341Z,75.12
2018-11-03T17:20:13.382Z,73.88
2018-11-03T17:23:18.226Z,74.27
2018-11-03T17:26:23.846Z,75.51
2018-11-03T17:29:28.977Z,77.04
2018-11-03T17:32:33.905Z,76.62
2018-11-03T17:35:38.687Z,77.42
2018-11-03T17:38:43.402Z,77.24
2018-11-03T17:41:48.088Z,78.03
2018-11-03T17:44:52.663Z,78.95
2018-11-03T17:47:57.471Z,78.35
2018-11-03T17:51:02.261Z,79.15
2018-11-03T17:54:07.030Z,78.35
2018-11-03T17:57:11.764Z,78.01
2018-11-03T18:00:17.551Z,77.79
2018-11-03T18:03:22.542Z,78.33
2018-11-03T18:06:27.633Z,79.44
2018-11-03T18:09:33.318Z,79.16
2018-11-03T18:12:38.341Z,78.29
2018-11-03T18:15:43.504Z,77.60
2018-11-03T18:18:48.676Z,79.09
2018-11-03T18:21:53.508Z,79.74
2018-11-03T18:24:58.427Z,79.50
2018-11-03T18:28:03.947Z,80.89
2018-11-03T18:31:10.384Z,80.98
2018-11-03T18:34:15.908Z,79.83
2018-11-03T18:37:21.214Z,79.48
2018-11-03T18:40:26.222Z,79.82
2018-11-03T18:43:31.646Z,80.18
2018-11-03T18:46:37.021Z,79.57
2018-11-03T18:49:42.013Z,79.90
2018-11-03T18:52:47.145Z,80.38
2018-11-03T18:55:52.085Z,80.72
2018-11-03T18:58:57.229Z,81.09
2018-11-03T19:02:02.488Z,81.23
2018-11-03T19:05:08.921Z,81.91
2018-11-03T19:08:14.089Z,82.00
2018-11-03T19:11:19.160Z,82.35
2018-11-03T19:14:24.402Z,82.91
2018-11-03T19:17:29.949Z,80.52
2018-11-03T19:20:35.716Z,78.81
2018-11-03T19:23:41.048Z,79.12
2018-11-03T19:26:46.457Z,79.31
2018-11-03T19:29:52.073Z,78.20
2018-11-03T19:32:57.213Z,78.62
2018-11-03T19:36:02.574Z,78.10
2018-11-03T19:39:09.996Z,78.89
2018-11-03T19:42:15.706Z,78.99
2018-11-03T19:45:20.794Z,78.62
2018-11-03T19:48:26.262Z,77.50
2018-11-03T19:51:32.304Z,77.30
2018-11-03T19:54:38.109Z,76.25
2018-11-03T19:57:43.527Z,77.01
2018-11-03T20:00:48.854Z,77.19
2018-11-03T20:03:54.194Z,76.11
2018-11-03T20:06:59.618Z,75.61
2018-11-03T20:10:04.996Z,75.41
2018-11-03T20:13:10.571Z,75.68
2018-11-03T20:16:15.983Z,74.78
2018-11-03T20:19:21.516Z,75.37
2018-11-03T20:22:31.268Z,75.04
2018-11-03T20:25:36.222Z,74.33
2018-11-03T20:28:41.342Z,74.31
2018-11-03T20:31:46.533Z,75.21
2018-11-03T20:34:52.221Z,74.20
2018-11-03T20:37:57.677Z,74.52
2018-11-03T20:41:02.942Z,74.60
2018-11-03T20:44:08.394Z,75.15
2018-11-03T20:47:13.253Z,75.26
2018-11-03T20:50:18.252Z,74.79
2018-11-03T20:53:23.628Z,74.54
2018-11-03T20:56:32.449Z,74.69
2018-11-03T20:59:37.929Z,75.08
2018-11-03T21:02:43.929Z,74.46
2018-11-03T21:05:49.501Z,74.79
2018-11-03T21:08:54.976Z,74.17
2018-11-03T21:12:00.233Z,73.89
2018-11-03T21:15:06.175Z,74.33
2018-11-03T21:18:11.831Z,75.32
2018-11-03T21:21:17.317Z,75.15
2018-11-03T21:24:22.896Z,75.01
2018-11-03T21:27:28.690Z,75.18
2018-11-03T21:30:34.008Z,74.81
2018-11-03T21:33:39.395Z,74.33
2018-11-03T21:36:44.851Z,74.37
2018-11-03T21:39:50.285Z,74.44
2018-11-03T21:42:55.348Z,74.89
2018-11-03T21:46:00.702Z,75.20
2018-11-03T21:49:06.339Z,75.83
2018-11-03T21:52:12.279Z,76.08
2018-11-03T21:55:17.536Z,76.64
2018-11-03T21:58:22.877Z,75.31
2018-11-03T22:01:28.496Z,75.66
2018-11-03T22:04:34.020Z,75.86
2018-11-03T22:07:39.423Z,75.54
2018-11-03T22:10:44.853Z,75.92
2018-11-03T22:13:50.081Z,75.47
2018-11-03T22:16:55.517Z,75.75
2018-11-03T22:20:01.034Z,76.20
2018-11-03T22:23:07.151Z,75.83
2018-11-03T22:26:13.042Z,76.91
2018-11-03T22:29:18.249Z,76.56
2018-11-03T22:32:23.148Z,76.68
2018-11-03T22:35:28.268Z,76.60
2018-11-03T22:38:33.253Z,74.81
2018-11-03T22:41:38.764Z,75.42
2018-11-03T22:44:43.714Z,76.11
2018-11-03T22:47:48.534Z,77.30
2018-11-03T22:50:53.525Z,76.86
2018-11-03T22:53:58.547Z,76.84
2018-11-03T22:57:03.618Z,76.28
2018-11-03T23:00:12.856Z,76.25
2018-11-03T23:03:18.627Z,76.21
2018-11-03T23:06:23.338Z,76.44
2018-11-03T23:09:28.978Z,76.98
2018-11-03T23:12:33.932Z,77.00
2018-11-03T23:15:38.781Z,76.87
2018-11-03T23:18:43.697Z,76.96
2018-11-03T23:21:48.621Z,76.63
2018-11-03T23:24:53.291Z,76.71
2018-11-03T23:27:58.111Z,75.76
2018-11-03T23:31:02.976Z,76.33
2018-11-03T23:34:07.805Z,76.62
2018-11-03T23:37:12.718Z,78.02
2018-11-03T23:40:17.338Z,77.79
2018-11-03T23:43:22.374Z,78.51
2018-11-03T23:46:27.334Z,78.24
2018-11-03T23:49:32.262Z,77.46
2018-11-03T23:52:37.122Z,78.02
2018-11-03T23:55:41.868Z,79.31
2018-11-03T23:58:46.644Z,79.27
